Estación Meteorológica Peña el Pijo (Robertgarden) [ 07/23/17 10:54:49 CEST ]

Fecha Hora Presion(HPa) Temp (°C) Humedad % Rocio (°C) Viento ( m/s) Direccion Lluvia 1Hora(mm) Lluvia 24H(mm) LLuvia Total(mm)
2017-Jul-02 01:01:44 1016.000 11.4 72 6.5         1427.60
2017-Jul-02 02:01:42 1015.600 10.6 75 6.3         1427.60
2017-Jul-02 03:01:35 1015.600 9.9 76 5.8         1427.60
2017-Jul-02 04:01:33 1015.200 9.0 79 5.5         1427.60
2017-Jul-02 05:01:30 1015.000 8.4 80 5.2         1427.60
2017-Jul-02 06:01:29 1015.100 7.9 81 4.9         1427.60
2017-Jul-02 07:01:54 1015.200 7.6 81 4.6         1427.60
2017-Jul-02 08:01:47 1015.400 10.8 84 8.2         1427.60
2017-Jul-02 09:01:57 1015.400 17.1 63 10.0         1427.60
2017-Jul-02 10:01:59 1015.500 21.8 47 9.9         1427.60
2017-Jul-02 11:02:01 1015.300 25.4 36 9.2         1427.60
2017-Jul-02 12:01:10 1015.100 26.7 27 6.0         1427.60
2017-Jul-02 13:01:42 1015.300 28.7 26 7.1         1427.60
2017-Jul-02 14:01:45 1014.800 29.5 26 7.8         1427.60
2017-Jul-02 15:01:37 1014.500 31.0 25 8.4         1427.60
2017-Jul-02 16:01:29 1014.200 33.0 24 9.5         1427.60
2017-Jul-02 17:01:44 1013.700 32.3 26 10.1         1427.60
2017-Jul-02 18:01:42 1013.500 30.9 28 10.1         1427.60
2017-Jul-02 19:01:45 1013.500 29.4 29 9.5         1427.60
2017-Jul-02 20:01:32 1014.000 25.9 33 8.3         1427.60
2017-Jul-02 21:01:37 1014.500 22.3 44 9.4         1427.60
2017-Jul-02 22:01:09 1015.200 20.6 50 9.8         1427.60
2017-Jul-02 23:09:31 1015.700 - - - - SSE     1427.60

Temperatura Máxima:33°    Temperatura Mínima:
Presión Máxima:1016.000 Hpa    Presión Mínima:1013.500 Hpa


Volver